Time;durP1;ratioP1;P1;durP2;ratioP2;P2;SDS_P1;SDS_P2;PMS_P1;PMS_P2;Temp;Humidity;BMP_temperature;BMP_pressure;BME280_temperature;BME280_humidity;BME280_pressure;Samples;Min_cycle;Max_cycle;Signal;HPM_P1;HPM_P2
2023/01/02 00:00:52;;;;;;;;;;;20.30;45.60;;;;;;5076222;28;19920;-66
2023/01/02 00:03:19;;;;;;;;;;;20.30;45.60;;;;;;5076271;28;19975;-66
2023/01/02 00:05:46;;;;;;;;;;;20.30;45.60;;;;;;5076450;28;20358;-66
2023/01/02 00:08:14;;;;;;;;;;;20.30;45.60;;;;;;5075905;28;19927;-65
2023/01/02 00:10:42;;;;;;;;;;;20.30;45.60;;;;;;5076329;28;19920;-66
2023/01/02 00:13:09;;;;;;;;;;;20.30;45.70;;;;;;5075861;28;19920;-66
2023/01/02 00:15:36;;;;;;;;;;;20.30;45.60;;;;;;5076018;28;19920;-65
2023/01/02 00:18:03;;;;;;;;;;;20.30;45.60;;;;;;5076203;28;19999;-66
2023/01/02 00:20:30;;;;;;;;;;;20.30;45.60;;;;;;5075220;28;19971;-66
2023/01/02 00:22:57;;;;;;;;;;;20.30;45.60;;;;;;5075294;28;20287;-65
2023/01/02 00:25:23;;;;;;;;;;;20.30;45.60;;;;;;5075337;28;19921;-65
2023/01/02 00:27:50;;;;;;;;;;;20.30;45.70;;;;;;5075313;28;19953;-65
2023/01/02 00:30:17;;;;;;;;;;;20.30;45.70;;;;;;5074644;28;20360;-65
2023/01/02 00:32:44;;;;;;;;;;;20.30;45.70;;;;;;5075955;28;19927;-66
2023/01/02 00:35:11;;;;;;;;;;;20.30;45.70;;;;;;5075404;28;20376;-65
2023/01/02 00:37:38;;;;;;;;;;;20.30;45.70;;;;;;5075945;28;20395;-65
2023/01/02 00:40:05;;;;;;;;;;;20.30;45.70;;;;;;5057901;28;19986;-65
2023/01/02 00:42:32;;;;;;;;;;;20.30;46.00;;;;;;5075687;28;19924;-65
2023/01/02 00:44:59;;;;;;;;;;;20.30;45.70;;;;;;5075245;28;19994;-65
2023/01/02 00:47:26;;;;;;;;;;;20.30;45.70;;;;;;5075686;28;19921;-65
2023/01/02 00:49:53;;;;;;;;;;;20.30;45.70;;;;;;5074836;28;20007;-65
2023/01/02 00:52:20;;;;;;;;;;;20.30;45.70;;;;;;5075181;28;20015;-65
2023/01/02 00:54:47;;;;;;;;;;;20.30;45.70;;;;;;5075499;28;20283;-66
2023/01/02 00:57:14;;;;;;;;;;;20.20;45.60;;;;;;5074811;28;20283;-66
2023/01/02 00:59:41;;;;;;;;;;;20.30;45.70;;;;;;5074764;28;20007;-65
2023/01/02 01:02:08;;;;;;;;;;;20.20;45.60;;;;;;5075058;28;20007;-65
2023/01/02 01:04:35;;;;;;;;;;;20.30;45.70;;;;;;5075025;28;19928;-65
2023/01/02 01:07:02;;;;;;;;;;;20.30;45.70;;;;;;5074188;28;20391;-65
2023/01/02 01:09:29;;;;;;;;;;;20.20;45.70;;;;;;5074675;28;20403;-65
2023/01/02 01:11:56;;;;;;;;;;;20.30;45.70;;;;;;5074756;28;19927;-65
2023/01/02 01:14:26;;;;;;;;;;;20.20;45.70;;;;;;5075070;28;19973;-65
2023/01/02 01:16:53;;;;;;;;;;;20.30;45.80;;;;;;5074368;28;20015;-66
2023/01/02 01:19:20;;;;;;;;;;;20.30;45.80;;;;;;5074007;28;19932;-65
2023/01/02 01:21:47;;;;;;;;;;;20.30;45.80;;;;;;5074644;28;19935;-65
2023/01/02 01:24:14;;;;;;;;;;;20.30;45.70;;;;;;5074559;28;19920;-66
2023/01/02 01:26:41;;;;;;;;;;;20.20;45.70;;;;;;5074393;28;19982;-65
2023/01/02 01:29:08;;;;;;;;;;;20.20;45.70;;;;;;5073890;28;20439;-65
2023/01/02 01:31:35;;;;;;;;;;;20.20;45.70;;;;;;5073937;28;20372;-65
2023/01/02 01:34:02;;;;;;;;;;;20.20;45.70;;;;;;5074224;28;19920;-65
2023/01/02 01:36:29;;;;;;;;;;;20.20;45.70;;;;;;5073788;28;20016;-65
2023/01/02 01:38:56;;;;;;;;;;;20.20;45.70;;;;;;5074231;28;20010;-66
2023/01/02 01:41:24;;;;;;;;;;;20.20;45.70;;;;;;5074070;28;19927;-65
2023/01/02 01:43:53;;;;;;;;;;;20.20;45.70;;;;;;5072525;28;19927;-65
2023/01/02 01:46:34;;;;;;;;;;;20.20;45.70;;;;;;5073312;28;20322;-65
2023/01/02 01:49:17;;;;;;;;;;;20.20;45.70;;;;;;5073135;28;19920;-66
2023/01/02 01:51:53;;;;;;;;;;;20.20;45.70;;;;;;5074453;28;19920;-65
2023/01/02 01:54:22;;;;;;;;;;;20.20;45.80;;;;;;5074344;28;19920;-66
2023/01/02 01:56:51;;;;;;;;;;;20.20;45.80;;;;;;5056630;28;20261;-65
2023/01/02 01:59:18;;;;;;;;;;;20.20;45.70;;;;;;5073729;28;20442;-65
2023/01/02 02:01:45;;;;;;;;;;;20.20;45.70;;;;;;5073504;28;19926;-65
2023/01/02 02:04:13;;;;;;;;;;;20.20;45.70;;;;;;5074258;28;19920;-66
2023/01/02 02:06:40;;;;;;;;;;;20.20;45.70;;;;;;5073873;28;19927;-65
2023/01/02 02:09:15;;;;;;;;;;;20.20;45.70;;;;;;5073944;28;19920;-65
2023/01/02 02:11:45;;;;;;;;;;;20.20;45.70;;;;;;5073547;28;19926;-65
2023/01/02 02:14:12;;;;;;;;;;;20.20;45.70;;;;;;5074092;28;19942;-65
2023/01/02 02:16:48;;;;;;;;;;;20.20;45.70;;;;;;5073179;28;19920;-65
2023/01/02 02:19:35;;;;;;;;;;;20.20;45.70;;;;;;5073316;28;20372;-65
2023/01/02 02:22:22;;;;;;;;;;;20.20;45.70;;;;;;5041967;28;20291;-65
2023/01/02 02:25:02;;;;;;;;;;;20.20;45.70;;;;;;5058465;28;20292;-65
2023/01/02 02:27:49;;;;;;;;;;;20.20;45.70;;;;;;5055304;28;19920;-65
2023/01/02 02:30:17;;;;;;;;;;;20.20;45.70;;;;;;5055873;28;19942;-65
2023/01/02 02:32:57;;;;;;;;;;;20.20;45.70;;;;;;5073057;28;19920;-65
2023/01/02 02:35:47;;;;;;;;;;;20.20;45.70;;;;;;5073853;28;19966;-65
2023/01/02 02:38:22;;;;;;;;;;;20.20;45.70;;;;;;5058998;28;19920;-65
2023/01/02 02:40:55;;;;;;;;;;;20.20;45.80;;;;;;5073840;28;20279;-65
2023/01/02 02:43:37;;;;;;;;;;;20.20;45.70;;;;;;5072340;28;20014;-65
2023/01/02 02:46:11;;;;;;;;;;;20.20;45.70;;;;;;5072581;28;19920;-66
2023/01/02 02:48:58;;;;;;;;;;;20.20;45.70;;;;;;5073029;28;20287;-65
2023/01/02 02:51:34;;;;;;;;;;;20.20;45.70;;;;;;5073629;28;19927;-65
2023/01/02 02:54:05;;;;;;;;;;;20.20;45.80;;;;;;5075611;28;19924;-65
2023/01/02 02:56:32;;;;;;;;;;;20.20;45.70;;;;;;5077166;28;20359;-65
2023/01/02 02:58:59;;;;;;;;;;;20.20;45.70;;;;;;5077411;28;19946;-65
2023/01/02 03:01:27;;;;;;;;;;;20.20;45.70;;;;;;5077649;28;19921;-66
2023/01/02 03:03:57;;;;;;;;;;;20.20;45.80;;;;;;5076875;28;19920;-65
2023/01/02 03:06:35;;;;;;;;;;;20.10;45.70;;;;;;5076969;28;20042;-66
2023/01/02 03:09:08;;;;;;;;;;;20.20;45.70;;;;;;5077063;28;19920;-65
2023/01/02 03:11:48;;;;;;;;;;;20.20;45.80;;;;;;5076656;28;20019;-65
2023/01/02 03:14:20;;;;;;;;;;;20.10;45.70;;;;;;5059235;28;19926;-65
2023/01/02 03:16:51;;;;;;;;;;;20.10;45.70;;;;;;5086714;28;20371;-65
2023/01/02 03:19:22;;;;;;;;;;;20.20;45.80;;;;;;5081211;28;19926;-65
2023/01/02 03:21:55;;;;;;;;;;;20.10;45.70;;;;;;5087100;28;20275;-65
2023/01/02 03:24:23;;;;;;;;;;;20.20;45.80;;;;;;5081238;28;19920;-66
2023/01/02 03:26:52;;;;;;;;;;;20.10;45.80;;;;;;5082643;28;19924;-65
2023/01/02 03:29:22;;;;;;;;;;;20.10;45.70;;;;;;5085792;28;19920;-65
2023/01/02 03:31:52;;;;;;;;;;;20.10;45.70;;;;;;5076583;28;20280;-65
2023/01/02 03:34:20;;;;;;;;;;;20.10;45.70;;;;;;5076965;28;19926;-65
2023/01/02 03:36:50;;;;;;;;;;;20.10;45.70;;;;;;5075895;28;20007;-65
2023/01/02 03:39:19;;;;;;;;;;;20.10;45.80;;;;;;5075875;28;20410;-66
2023/01/02 03:41:54;;;;;;;;;;;20.10;45.80;;;;;;5086049;28;19926;-65
2023/01/02 03:44:23;;;;;;;;;;;20.10;45.80;;;;;;5060176;28;19928;-65
2023/01/02 03:46:53;;;;;;;;;;;20.10;45.80;;;;;;5076639;28;19928;-65
2023/01/02 03:49:29;;;;;;;;;;;20.10;45.80;;;;;;5081263;28;20241;-65
2023/01/02 03:51:56;;;;;;;;;;;20.10;45.70;;;;;;5055926;28;19921;-65
2023/01/02 03:54:26;;;;;;;;;;;20.10;45.70;;;;;;5056048;28;20279;-65
2023/01/02 03:56:59;;;;;;;;;;;20.10;45.80;;;;;;5064052;28;20015;-65
2023/01/02 03:59:35;;;;;;;;;;;20.10;45.80;;;;;;5079444;28;19934;-65
2023/01/02 04:02:10;;;;;;;;;;;20.10;45.80;;;;;;5078108;28;19920;-65
2023/01/02 04:04:48;;;;;;;;;;;20.10;45.80;;;;;;5075651;28;20023;-65
2023/01/02 04:07:21;;;;;;;;;;;20.10;45.80;;;;;;5074989;28;19920;-66
2023/01/02 04:09:48;;;;;;;;;;;20.10;45.80;;;;;;5076679;28;19919;-65
2023/01/02 04:12:19;;;;;;;;;;;20.10;45.80;;;;;;5096302;28;19948;-65
2023/01/02 04:14:48;;;;;;;;;;;20.10;45.80;;;;;;5078377;28;19926;-65
2023/01/02 04:17:15;;;;;;;;;;;20.10;45.80;;;;;;5095948;28;20283;-65
2023/01/02 04:19:45;;;;;;;;;;;20.10;45.70;;;;;;5095804;28;19924;-65
2023/01/02 04:22:16;;;;;;;;;;;20.10;45.70;;;;;;5083638;28;19921;-65
2023/01/02 04:24:47;;;;;;;;;;;20.10;45.70;;;;;;5094413;28;19927;-65
2023/01/02 04:27:19;;;;;;;;;;;20.10;46.30;;;;;;5095417;28;20351;-65
2023/01/02 04:29:46;;;;;;;;;;;20.10;45.70;;;;;;5095524;28;19920;-65
2023/01/02 04:32:16;;;;;;;;;;;20.10;45.70;;;;;;5089769;28;20344;-65
2023/01/02 04:34:44;;;;;;;;;;;20.20;45.80;;;;;;5057794;28;19920;-65
2023/01/02 04:37:25;;;;;;;;;;;20.10;45.70;;;;;;5075396;28;20288;-65
2023/01/02 04:39:54;;;;;;;;;;;20.10;45.70;;;;;;5075348;28;19928;-65
2023/01/02 04:42:21;;;;;;;;;;;20.10;45.70;;;;;;5061510;28;19925;-66
2023/01/02 04:44:48;;;;;;;;;;;20.10;45.70;;;;;;5067886;28;19943;-65
2023/01/02 04:47:15;;;;;;;;;;;20.10;45.70;;;;;;5079820;28;19943;-65
2023/01/02 04:49:47;;;;;;;;;;;20.10;45.70;;;;;;5087366;28;19935;-65
2023/01/02 04:52:14;;;;;;;;;;;20.10;45.70;;;;;;5080354;28;19955;-65
2023/01/02 04:54:41;;;;;;;;;;;20.10;45.70;;;;;;5074074;28;19925;-65
2023/01/02 04:57:08;;;;;;;;;;;20.10;45.80;;;;;;5079406;28;20049;-65
2023/01/02 04:59:35;;;;;;;;;;;20.10;45.70;;;;;;5084454;28;19963;-65
2023/01/02 05:02:02;;;;;;;;;;;20.10;45.80;;;;;;5082005;28;19926;-65
2023/01/02 05:04:29;;;;;;;;;;;20.10;45.70;;;;;;5085654;28;19931;-65
2023/01/02 05:06:56;;;;;;;;;;;20.10;46.00;;;;;;5090579;28;19920;-65
2023/01/02 05:09:23;;;;;;;;;;;20.10;45.80;;;;;;5079167;28;19920;-65
2023/01/02 05:11:50;;;;;;;;;;;20.10;45.80;;;;;;5074929;28;19926;-65
2023/01/02 05:14:17;;;;;;;;;;;20.10;45.80;;;;;;5075023;28;20269;-65
2023/01/02 05:16:44;;;;;;;;;;;20.00;45.70;;;;;;5074583;28;19927;-65
2023/01/02 05:19:11;;;;;;;;;;;20.00;45.70;;;;;;5089657;28;20411;-65
2023/01/02 05:24:25;;;;;;;;;;;20.10;45.80;;;;;;5075871;28;19920;-65
2023/01/02 05:26:53;;;;;;;;;;;20.10;45.80;;;;;;5089552;28;19920;-65
2023/01/02 05:29:20;;;;;;;;;;;20.10;45.80;;;;;;5082925;28;19931;-65
2023/01/02 05:31:47;;;;;;;;;;;20.10;45.80;;;;;;5081379;28;19920;-65
2023/01/02 05:34:14;;;;;;;;;;;20.00;45.70;;;;;;5094526;28;19926;-65
2023/01/02 05:36:41;;;;;;;;;;;20.00;45.70;;;;;;5094861;28;19930;-66
2023/01/02 05:39:10;;;;;;;;;;;20.00;45.70;;;;;;5094759;28;20211;-65
2023/01/02 05:41:38;;;;;;;;;;;20.10;45.70;;;;;;5088056;28;19921;-65
2023/01/02 05:44:07;;;;;;;;;;;20.00;45.70;;;;;;5084722;28;19919;-65
2023/01/02 05:46:34;;;;;;;;;;;20.00;45.70;;;;;;5088096;28;20010;-66
2023/01/02 05:49:06;;;;;;;;;;;20.00;45.70;;;;;;5094513;28;20341;-66
2023/01/02 05:51:33;;;;;;;;;;;20.00;45.60;;;;;;5084474;28;19930;-67
2023/01/02 05:54:00;;;;;;;;;;;20.00;45.70;;;;;;5073845;28;19920;-65
2023/01/02 05:56:28;;;;;;;;;;;20.00;45.70;;;;;;5076925;28;19927;-66
2023/01/02 05:58:55;;;;;;;;;;;20.00;45.60;;;;;;5094149;28;19927;-65
2023/01/02 06:01:24;;;;;;;;;;;20.00;45.60;;;;;;5087593;28;19924;-65
2023/01/02 06:03:52;;;;;;;;;;;20.00;45.60;;;;;;5083540;28;20398;-66
2023/01/02 06:06:21;;;;;;;;;;;20.10;45.70;;;;;;5083373;28;19920;-65
2023/01/02 06:08:48;;;;;;;;;;;20.10;45.60;;;;;;5085231;28;19920;-66
2023/01/02 06:11:15;;;;;;;;;;;20.10;45.60;;;;;;5066718;28;20011;-65
2023/01/02 06:13:42;;;;;;;;;;;20.10;45.60;;;;;;5074304;28;20318;-66
2023/01/02 06:16:09;;;;;;;;;;;20.10;45.60;;;;;;5069961;28;19927;-63
2023/01/02 06:18:36;;;;;;;;;;;20.10;45.70;;;;;;5088844;28;19920;-68
2023/01/02 06:21:05;;;;;;;;;;;20.20;45.90;;;;;;5045668;28;19927;-67
2023/01/02 06:23:32;;;;;;;;;;;20.20;45.70;;;;;;5045096;28;20461;-66
2023/01/02 06:26:03;;;;;;;;;;;20.30;45.80;;;;;;5059163;28;19954;-66
2023/01/02 06:28:30;;;;;;;;;;;20.30;45.90;;;;;;5063247;28;19929;-66
2023/01/02 06:31:01;;;;;;;;;;;20.30;45.80;;;;;;5051507;28;20436;-67
2023/01/02 06:33:29;;;;;;;;;;;20.40;45.70;;;;;;5066619;28;20015;-68
2023/01/02 06:35:57;;;;;;;;;;;20.40;45.60;;;;;;5068821;28;19928;-66
2023/01/02 06:38:24;;;;;;;;;;;20.40;45.60;;;;;;5059112;28;20042;-70
2023/01/02 06:40:52;;;;;;;;;;;20.40;45.40;;;;;;5059982;28;20358;-70
2023/01/02 06:43:19;;;;;;;;;;;20.50;45.40;;;;;;5054866;28;19931;-68
2023/01/02 06:45:46;;;;;;;;;;;20.50;45.40;;;;;;5040507;28;20408;-69
2023/01/02 06:48:13;;;;;;;;;;;20.60;45.30;;;;;;5049453;28;19927;-67
2023/01/02 06:50:41;;;;;;;;;;;20.60;45.20;;;;;;5060142;28;19920;-67
2023/01/02 06:53:08;;;;;;;;;;;20.60;45.10;;;;;;5058459;28;19920;-67
2023/01/02 06:55:35;;;;;;;;;;;20.70;45.10;;;;;;5064106;28;19921;-66
2023/01/02 06:58:02;;;;;;;;;;;20.70;45.00;;;;;;5046124;28;20430;-65
2023/01/02 07:00:38;;;;;;;;;;;20.70;44.90;;;;;;5061322;28;19981;-65
2023/01/02 07:03:05;;;;;;;;;;;20.70;44.90;;;;;;5058032;28;19921;-64
2023/01/02 07:05:32;;;;;;;;;;;20.70;44.90;;;;;;5036342;28;20021;-64
2023/01/02 07:07:59;;;;;;;;;;;20.80;45.00;;;;;;5059298;28;19927;-65
2023/01/02 07:10:26;;;;;;;;;;;20.80;45.00;;;;;;5059610;28;19924;-65
2023/01/02 07:12:53;;;;;;;;;;;20.80;45.00;;;;;;5061838;28;20353;-65
2023/01/02 07:15:20;;;;;;;;;;;20.80;44.90;;;;;;5056988;28;20338;-65
2023/01/02 07:17:47;;;;;;;;;;;20.90;44.90;;;;;;5056613;28;19933;-63
2023/01/02 07:20:14;;;;;;;;;;;20.90;44.80;;;;;;5056912;28;19928;-64
2023/01/02 07:22:41;;;;;;;;;;;20.90;44.90;;;;;;5059623;28;19929;-66
2023/01/02 07:25:08;;;;;;;;;;;20.90;45.30;;;;;;5060280;28;19927;-65
2023/01/02 07:27:35;;;;;;;;;;;21.00;45.40;;;;;;5057152;28;19931;-74
2023/01/02 07:30:03;;;;;;;;;;;21.10;45.70;;;;;;5057497;28;19939;-66
2023/01/02 07:32:30;;;;;;;;;;;21.10;46.10;;;;;;5055153;28;19928;-69
2023/01/02 07:34:56;;;;;;;;;;;21.10;46.00;;;;;;5059449;28;20020;-69
2023/01/02 07:37:24;;;;;;;;;;;21.20;45.90;;;;;;5058951;28;19924;-67
2023/01/02 07:39:51;;;;;;;;;;;21.30;45.80;;;;;;5060250;28;19935;-65
2023/01/02 07:42:18;;;;;;;;;;;21.30;45.80;;;;;;5061166;28;19928;-65
2023/01/02 07:44:45;;;;;;;;;;;21.40;45.80;;;;;;5062176;28;19928;-72
2023/01/02 07:47:12;;;;;;;;;;;21.40;45.60;;;;;;5056664;28;20024;-72
2023/01/02 07:49:39;;;;;;;;;;;21.40;45.60;;;;;;5059853;28;19929;-71
2023/01/02 07:52:10;;;;;;;;;;;21.50;45.60;;;;;;5059051;28;20450;-73
2023/01/02 07:54:37;;;;;;;;;;;21.50;45.50;;;;;;5061599;28;19920;-70
2023/01/02 07:57:07;;;;;;;;;;;21.50;45.50;;;;;;5058102;28;19927;-69
2023/01/02 07:59:34;;;;;;;;;;;21.60;45.40;;;;;;5058345;28;19932;-70
2023/01/02 08:02:00;;;;;;;;;;;21.60;45.30;;;;;;5059412;28;20027;-70
2023/01/02 08:04:28;;;;;;;;;;;21.70;45.30;;;;;;5061394;28;20022;-74
2023/01/02 08:06:55;;;;;;;;;;;21.70;45.20;;;;;;5057096;28;19927;-69
2023/01/02 08:09:22;;;;;;;;;;;21.80;45.20;;;;;;5059872;28;19928;-68
2023/01/02 08:11:49;;;;;;;;;;;21.80;45.10;;;;;;5061456;28;19920;-68
2023/01/02 08:14:16;;;;;;;;;;;21.80;45.00;;;;;;5062278;28;19950;-80
2023/01/02 08:16:49;;;;;;;;;;;21.90;44.90;;;;;;5060542;28;20438;-74
2023/01/02 08:19:16;;;;;;;;;;;21.90;44.90;;;;;;5057967;28;20031;-75
2023/01/02 08:21:43;;;;;;;;;;;21.90;44.90;;;;;;5062091;28;19935;-75
2023/01/02 08:24:10;;;;;;;;;;;22.00;45.00;;;;;;5061704;28;19959;-69
2023/01/02 08:26:37;;;;;;;;;;;22.00;44.90;;;;;;5059245;28;19921;-73
2023/01/02 08:29:04;;;;;;;;;;;22.00;45.00;;;;;;5041091;28;19928;-73
2023/01/02 08:31:31;;;;;;;;;;;22.10;45.00;;;;;;5055467;28;19928;-74
2023/01/02 08:33:59;;;;;;;;;;;22.10;44.90;;;;;;5061444;28;19935;-72
2023/01/02 08:36:26;;;;;;;;;;;22.20;44.90;;;;;;5061352;28;19935;-78
2023/01/02 08:38:53;;;;;;;;;;;22.20;44.60;;;;;;5063846;28;20451;-72
2023/01/02 08:41:30;;;;;;;;;;;22.20;44.70;;;;;;5060167;28;19928;-73
2023/01/02 08:43:58;;;;;;;;;;;22.30;44.70;;;;;;5060751;28;19921;-71
2023/01/02 08:46:25;;;;;;;;;;;22.30;44.70;;;;;;5055112;28;19920;-71
2023/01/02 08:48:52;;;;;;;;;;;22.40;44.60;;;;;;5058781;28;20006;-73
2023/01/02 08:51:19;;;;;;;;;;;22.40;44.60;;;;;;5058422;28;20007;-73
2023/01/02 08:53:46;;;;;;;;;;;22.40;44.60;;;;;;5060932;28;19973;-73
2023/01/02 08:56:20;;;;;;;;;;;22.50;44.60;;;;;;5060496;28;20358;-74
2023/01/02 08:58:51;;;;;;;;;;;22.50;44.50;;;;;;5060620;28;20399;-75
2023/01/02 09:01:18;;;;;;;;;;;22.50;44.50;;;;;;5061882;28;19931;-74
2023/01/02 09:03:45;;;;;;;;;;;22.60;44.60;;;;;;5056252;28;21212;-74
2023/01/02 09:06:12;;;;;;;;;;;22.60;44.60;;;;;;5057021;28;19951;-72
2023/01/02 09:08:47;;;;;;;;;;;22.60;44.90;;;;;;5061900;28;20007;-72
2023/01/02 09:11:15;;;;;;;;;;;22.60;44.70;;;;;;5057781;28;19992;-72
2023/01/02 09:13:43;;;;;;;;;;;22.70;44.60;;;;;;5061875;28;19920;-71
2023/01/02 09:16:10;;;;;;;;;;;22.70;44.40;;;;;;5058220;28;19924;-72
2023/01/02 09:18:38;;;;;;;;;;;22.70;44.20;;;;;;5061400;28;19994;-73
2023/01/02 09:21:05;;;;;;;;;;;22.80;44.10;;;;;;5060492;28;19921;-75
2023/01/02 09:23:32;;;;;;;;;;;22.80;44.20;;;;;;5067265;28;20444;-72
2023/01/02 09:26:00;;;;;;;;;;;22.80;44.20;;;;;;5075279;28;19920;-73
2023/01/02 09:28:30;;;;;;;;;;;22.80;43.90;;;;;;5074822;28;20364;-71
2023/01/02 09:30:57;;;;;;;;;;;22.90;44.00;;;;;;5074559;28;19920;-72
2023/01/02 09:33:24;;;;;;;;;;;22.80;44.00;;;;;;5075148;28;19973;-71
2023/01/02 09:35:51;;;;;;;;;;;22.90;44.00;;;;;;5075994;28;19958;-76
2023/01/02 09:38:18;;;;;;;;;;;23.00;44.00;;;;;;5074681;28;19978;-71
2023/01/02 09:40:47;;;;;;;;;;;23.00;43.90;;;;;;5074645;28;19955;-75
2023/01/02 09:43:16;;;;;;;;;;;23.00;43.90;;;;;;5075697;28;20107;-73
2023/01/02 09:45:43;;;;;;;;;;;23.00;43.80;;;;;;5074633;28;19978;-72
2023/01/02 09:48:15;;;;;;;;;;;23.10;43.80;;;;;;5055971;28;19956;-71
2023/01/02 09:50:44;;;;;;;;;;;23.10;43.70;;;;;;5057685;28;20328;-73
2023/01/02 09:53:12;;;;;;;;;;;23.10;43.80;;;;;;5056729;28;19928;-73
2023/01/02 09:55:48;;;;;;;;;;;23.10;43.60;;;;;;5058393;28;19935;-68
2023/01/02 09:58:26;;;;;;;;;;;23.10;43.60;;;;;;5061042;28;19928;-73
2023/01/02 10:00:53;;;;;;;;;;;23.20;43.70;;;;;;5059464;28;19999;-76
2023/01/02 10:03:27;;;;;;;;;;;23.20;43.70;;;;;;5059862;28;20006;-73
2023/01/02 10:06:04;;;;;;;;;;;23.20;43.40;;;;;;5059654;28;19960;-69
2023/01/02 10:08:51;;;;;;;;;;;23.30;43.40;;;;;;5059936;28;19928;-66
2023/01/02 10:11:38;;;;;;;;;;;23.30;43.50;;;;;;5045392;28;20381;-72
2023/01/02 10:14:19;;;;;;;;;;;23.30;43.40;;;;;;5059316;28;20023;-75
2023/01/02 10:16:53;;;;;;;;;;;23.30;43.50;;;;;;5059644;28;19928;-63
2023/01/02 10:19:40;;;;;;;;;;;23.30;43.40;;;;;;5056602;28;19934;-77
2023/01/02 10:22:09;;;;;;;;;;;23.40;43.50;;;;;;5062991;28;19939;-74
2023/01/02 10:24:46;;;;;;;;;;;23.40;43.40;;;;;;5062808;28;19928;-75
2023/01/02 10:27:16;;;;;;;;;;;23.40;43.40;;;;;;5058623;28;20323;-77
2023/01/02 10:29:55;;;;;;;;;;;23.40;43.20;;;;;;5058481;28;20395;-77
2023/01/02 10:32:22;;;;;;;;;;;23.40;43.10;;;;;;5056869;28;20292;-75
2023/01/02 10:35:10;;;;;;;;;;;23.50;43.10;;;;;;5055143;28;19928;-73
2023/01/02 10:37:37;;;;;;;;;;;23.50;43.30;;;;;;5059494;28;19935;-76
2023/01/02 10:40:04;;;;;;;;;;;23.50;43.00;;;;;;5055787;28;20292;-74
2023/01/02 10:42:32;;;;;;;;;;;23.50;43.10;;;;;;5058060;28;19925;-77
2023/01/02 10:44:59;;;;;;;;;;;23.60;43.10;;;;;;5056039;28;20019;-79
2023/01/02 10:47:37;;;;;;;;;;;23.60;43.00;;;;;;5056709;28;19998;-71
2023/01/02 10:50:21;;;;;;;;;;;23.60;43.10;;;;;;5042567;28;19972;-71
2023/01/02 10:52:50;;;;;;;;;;;23.60;43.20;;;;;;5050290;28;19921;-72
2023/01/02 10:55:28;;;;;;;;;;;23.70;43.20;;;;;;5044913;28;20022;-71
2023/01/02 10:58:00;;;;;;;;;;;23.70;43.20;;;;;;5061247;28;19921;-66
2023/01/02 11:00:29;;;;;;;;;;;23.70;43.10;;;;;;5054917;28;20390;-76
2023/01/02 11:02:58;;;;;;;;;;;23.70;43.50;;;;;;5059569;28;19982;-74
2023/01/02 11:05:30;;;;;;;;;;;23.70;43.10;;;;;;5059145;28;19973;-68
2023/01/02 11:07:57;;;;;;;;;;;23.80;43.20;;;;;;5062255;28;19954;-71
2023/01/02 11:10:29;;;;;;;;;;;23.80;43.10;;;;;;5057848;28;19932;-71
2023/01/02 11:13:00;;;;;;;;;;;23.80;43.00;;;;;;5059994;28;19925;-70
2023/01/02 11:15:34;;;;;;;;;;;23.80;42.90;;;;;;5061095;28;20366;-70
2023/01/02 11:18:02;;;;;;;;;;;23.90;42.80;;;;;;5063555;28;20097;-70
2023/01/02 11:20:31;;;;;;;;;;;23.90;42.90;;;;;;5066323;28;19971;-70
2023/01/02 11:23:00;;;;;;;;;;;23.90;42.80;;;;;;5064678;28;19928;-73
2023/01/02 11:25:31;;;;;;;;;;;23.90;42.70;;;;;;5063242;28;19986;-75
2023/01/02 11:27:59;;;;;;;;;;;23.90;42.70;;;;;;5056140;28;19920;-73
2023/01/02 11:30:28;;;;;;;;;;;23.90;42.70;;;;;;5062257;28;19935;-75
2023/01/02 11:33:06;;;;;;;;;;;23.90;42.60;;;;;;5041003;28;19935;-71
2023/01/02 11:35:41;;;;;;;;;;;23.90;42.60;;;;;;5042547;28;19931;-71
2023/01/02 11:38:12;;;;;;;;;;;23.90;42.50;;;;;;5057200;28;19929;-71
2023/01/02 11:40:49;;;;;;;;;;;23.90;42.50;;;;;;5060009;28;19930;-71
2023/01/02 11:46:09;;;;;;;;;;;23.90;42.40;;;;;;5057311;28;19920;-69
2023/01/02 11:48:36;;;;;;;;;;;24.00;42.40;;;;;;5056132;28;19975;-67
2023/01/02 11:51:04;;;;;;;;;;;23.90;42.30;;;;;;5062361;28;20011;-67
2023/01/02 11:53:39;;;;;;;;;;;24.00;42.20;;;;;;5044848;28;19983;-67
2023/01/02 11:56:12;;;;;;;;;;;24.00;42.10;;;;;;5063326;28;19966;-69
2023/01/02 11:58:48;;;;;;;;;;;24.00;42.10;;;;;;5062831;28;19974;-70
2023/01/02 12:01:21;;;;;;;;;;;23.90;42.00;;;;;;5064085;28;19963;-70
2023/01/02 12:03:48;;;;;;;;;;;24.00;42.00;;;;;;5065425;28;20452;-69
2023/01/02 12:06:17;;;;;;;;;;;23.90;42.00;;;;;;5062255;28;19928;-67
2023/01/02 12:08:58;;;;;;;;;;;23.90;42.00;;;;;;5062016;28;19928;-69
2023/01/02 12:11:39;;;;;;;;;;;24.00;42.00;;;;;;5066919;28;19928;-66
2023/01/02 12:14:13;;;;;;;;;;;23.90;41.90;;;;;;5060633;28;20954;-63
2023/01/02 12:16:58;;;;;;;;;;;24.00;42.00;;;;;;5062157;28;20006;-64
2023/01/02 12:19:45;;;;;;;;;;;24.00;42.00;;;;;;5063359;28;19935;-66
2023/01/02 12:22:28;;;;;;;;;;;24.00;42.00;;;;;;5047269;28;19924;-68
2023/01/02 12:25:01;;;;;;;;;;;24.10;42.00;;;;;;5064959;28;19928;-69
2023/01/02 12:27:33;;;;;;;;;;;24.10;42.00;;;;;;5059050;28;19921;-64
2023/01/02 12:30:07;;;;;;;;;;;24.10;42.00;;;;;;5058451;28;20015;-67
2023/01/02 12:32:49;;;;;;;;;;;24.10;42.00;;;;;;5063001;28;19951;-69
2023/01/02 12:35:22;;;;;;;;;;;24.10;41.90;;;;;;5062520;28;19928;-70
2023/01/02 12:38:02;;;;;;;;;;;24.10;41.90;;;;;;5060276;28;20019;-68
2023/01/02 12:40:49;;;;;;;;;;;24.20;41.90;;;;;;5043180;28;20007;-73
2023/01/02 12:43:23;;;;;;;;;;;24.10;41.90;;;;;;5060920;28;20296;-63
2023/01/02 12:46:01;;;;;;;;;;;24.10;42.10;;;;;;5060088;28;19921;-74
2023/01/02 12:48:49;;;;;;;;;;;24.10;42.00;;;;;;5063212;28;19929;-72
2023/01/02 12:51:34;;;;;;;;;;;24.10;42.20;;;;;;5048194;28;19931;-73
2023/01/02 12:54:19;;;;;;;;;;;24.10;42.20;;;;;;5060923;28;19924;-75
2023/01/02 12:57:02;;;;;;;;;;;24.10;42.10;;;;;;5064679;28;19921;-76
2023/01/02 12:59:38;;;;;;;;;;;24.10;42.40;;;;;;5061657;28;19920;-68
2023/01/02 13:02:25;;;;;;;;;;;24.10;42.40;;;;;;5059165;28;19929;-69
2023/01/02 13:04:55;;;;;;;;;;;24.20;42.50;;;;;;5044783;28;19976;-69
2023/01/02 13:07:30;;;;;;;;;;;24.10;42.30;;;;;;5059013;28;20376;-71
2023/01/02 13:10:01;;;;;;;;;;;24.10;42.30;;;;;;5061455;28;19935;-70
2023/01/02 13:12:29;;;;;;;;;;;24.10;42.20;;;;;;5059795;28;19920;-69
2023/01/02 13:14:59;;;;;;;;;;;24.10;42.10;;;;;;5062733;28;19924;-70
2023/01/02 13:17:46;;;;;;;;;;;24.10;42.00;;;;;;5061192;28;19928;-71
2023/01/02 13:20:29;;;;;;;;;;;24.10;42.10;;;;;;5058604;28;19934;-73
2023/01/02 13:23:15;;;;;;;;;;;24.10;42.10;;;;;;5061261;28;20014;-71
2023/01/02 13:25:51;;;;;;;;;;;24.10;42.10;;;;;;5061451;28;19974;-70
2023/01/02 13:28:19;;;;;;;;;;;24.00;42.00;;;;;;5063383;28;21007;-66
2023/01/02 13:30:57;;;;;;;;;;;24.00;42.00;;;;;;5058554;28;20013;-70
2023/01/02 13:33:46;;;;;;;;;;;24.00;42.10;;;;;;5060212;28;19935;-70
2023/01/02 13:36:25;;;;;;;;;;;24.00;42.00;;;;;;5058864;28;19935;-71
2023/01/02 13:38:55;;;;;;;;;;;24.00;42.10;;;;;;5057842;28;19921;-71
2023/01/02 13:41:22;;;;;;;;;;;23.90;42.00;;;;;;5059724;28;19928;-69
2023/01/02 13:43:54;;;;;;;;;;;24.00;42.00;;;;;;5057076;28;19927;-70
2023/01/02 13:46:27;;;;;;;;;;;24.00;42.10;;;;;;5060371;28;22348;-69
2023/01/02 13:49:17;;;;;;;;;;;23.90;42.00;;;;;;5059059;28;19939;-69
2023/01/02 13:51:45;;;;;;;;;;;23.90;42.00;;;;;;5058035;28;20288;-69
2023/01/02 13:54:17;;;;;;;;;;;23.90;42.00;;;;;;5059533;28;20471;-69
2023/01/02 13:57:04;;;;;;;;;;;23.90;42.00;;;;;;5057307;28;20336;-71
2023/01/02 13:59:31;;;;;;;;;;;23.90;42.00;;;;;;5061676;28;19934;-67
2023/01/02 14:02:14;;;;;;;;;;;23.90;42.10;;;;;;5058763;28;19926;-70
2023/01/02 14:04:42;;;;;;;;;;;23.90;42.10;;;;;;5059137;28;19920;-70
2023/01/02 14:07:29;;;;;;;;;;;23.90;42.20;;;;;;5059460;28;19928;-69
2023/01/02 14:10:06;;;;;;;;;;;23.80;42.20;;;;;;5054094;28;19974;-68
2023/01/02 14:12:48;;;;;;;;;;;23.90;42.20;;;;;;5058266;28;20018;-70
2023/01/02 14:15:21;;;;;;;;;;;23.80;42.20;;;;;;5055840;28;19975;-71
2023/01/02 14:17:51;;;;;;;;;;;23.80;42.20;;;;;;5062752;28;19928;-70
2023/01/02 14:20:20;;;;;;;;;;;23.80;42.30;;;;;;5052031;28;19928;-68
2023/01/02 14:22:50;;;;;;;;;;;23.80;42.30;;;;;;5053775;28;19982;-68
2023/01/02 14:25:20;;;;;;;;;;;23.80;42.30;;;;;;5057805;28;20944;-70
2023/01/02 14:27:52;;;;;;;;;;;23.80;42.30;;;;;;5058900;28;20015;-70
2023/01/02 14:30:22;;;;;;;;;;;23.80;42.30;;;;;;5056649;28;19994;-71
2023/01/02 14:32:50;;;;;;;;;;;23.80;42.30;;;;;;5059643;28;19932;-75
2023/01/02 14:35:23;;;;;;;;;;;23.80;42.40;;;;;;5057723;28;19929;-72
2023/01/02 14:37:52;;;;;;;;;;;23.80;42.30;;;;;;5060630;28;19967;-72
2023/01/02 14:40:39;;;;;;;;;;;23.80;42.30;;;;;;5061152;28;19921;-69
2023/01/02 14:46:06;;;;;;;;;;;23.80;43.00;;;;;;5056201;28;19939;-70